sensor_id;sensor_type;location;lat;lon;timestamp;temperature;humidity
10046;DHT22;5063;50.878;4.742;2023-07-31T00:01:24;16.60;99.90
10046;DHT22;5063;50.878;4.742;2023-07-31T00:03:50;16.60;99.90
10046;DHT22;5063;50.878;4.742;2023-07-31T00:06:16;16.60;99.90
10046;DHT22;5063;50.878;4.742;2023-07-31T00:08:41;16.60;99.90
10046;DHT22;5063;50.878;4.742;2023-07-31T00:11:07;16.70;99.90
10046;DHT22;5063;50.878;4.742;2023-07-31T00:13:33;16.70;99.90
10046;DHT22;5063;50.878;4.742;2023-07-31T00:15:59;16.70;99.90
10046;DHT22;5063;50.878;4.742;2023-07-31T00:18:25;16.70;99.90
10046;DHT22;5063;50.878;4.742;2023-07-31T00:20:50;16.70;99.90
10046;DHT22;5063;50.878;4.742;2023-07-31T00:23:16;16.80;99.90
10046;DHT22;5063;50.878;4.742;2023-07-31T00:25:42;16.80;99.90
10046;DHT22;5063;50.878;4.742;2023-07-31T00:28:07;16.80;99.90
10046;DHT22;5063;50.878;4.742;2023-07-31T00:30:33;16.80;99.90
10046;DHT22;5063;50.878;4.742;2023-07-31T00:32:59;16.80;99.90
10046;DHT22;5063;50.878;4.742;2023-07-31T00:35:24;16.80;99.90
10046;DHT22;5063;50.878;4.742;2023-07-31T00:37:50;16.90;99.90
10046;DHT22;5063;50.878;4.742;2023-07-31T00:40:16;16.80;99.90
10046;DHT22;5063;50.878;4.742;2023-07-31T00:42:41;16.80;99.90
10046;DHT22;5063;50.878;4.742;2023-07-31T00:45:07;16.90;99.90
10046;DHT22;5063;50.878;4.742;2023-07-31T00:47:33;16.90;99.90
10046;DHT22;5063;50.878;4.742;2023-07-31T00:49:59;16.90;99.90
10046;DHT22;5063;50.878;4.742;2023-07-31T00:52:25;17.00;99.90
10046;DHT22;5063;50.878;4.742;2023-07-31T00:54:50;17.00;99.90
10046;DHT22;5063;50.878;4.742;2023-07-31T00:57:16;17.00;99.90
10046;DHT22;5063;50.878;4.742;2023-07-31T00:59:42;17.00;99.90
10046;DHT22;5063;50.878;4.742;2023-07-31T01:02:07;17.00;99.90
10046;DHT22;5063;50.878;4.742;2023-07-31T01:04:33;17.00;99.90
10046;DHT22;5063;50.878;4.742;2023-07-31T01:12:00;17.10;99.90
10046;DHT22;5063;50.878;4.742;2023-07-31T01:14:27;17.10;99.90
10046;DHT22;5063;50.878;4.742;2023-07-31T01:16:52;17.10;99.90
10046;DHT22;5063;50.878;4.742;2023-07-31T01:19:22;17.10;99.90
10046;DHT22;5063;50.878;4.742;2023-07-31T01:27:12;17.10;99.90
10046;DHT22;5063;50.878;4.742;2023-07-31T01:29:48;17.10;99.90
10046;DHT22;5063;50.878;4.742;2023-07-31T01:32:15;17.10;99.90
10046;DHT22;5063;50.878;4.742;2023-07-31T01:34:43;17.00;99.90
10046;DHT22;5063;50.878;4.742;2023-07-31T01:37:09;17.00;99.90
10046;DHT22;5063;50.878;4.742;2023-07-31T01:39:35;17.00;99.90
10046;DHT22;5063;50.878;4.742;2023-07-31T01:42:01;17.00;99.90
10046;DHT22;5063;50.878;4.742;2023-07-31T01:44:26;17.00;99.90
10046;DHT22;5063;50.878;4.742;2023-07-31T01:46:52;17.10;99.90
10046;DHT22;5063;50.878;4.742;2023-07-31T01:49:18;17.10;99.90
10046;DHT22;5063;50.878;4.742;2023-07-31T01:51:43;17.10;99.90
10046;DHT22;5063;50.878;4.742;2023-07-31T01:54:09;17.20;99.90
10046;DHT22;5063;50.878;4.742;2023-07-31T01:56:35;17.20;99.90
10046;DHT22;5063;50.878;4.742;2023-07-31T01:59:00;17.20;99.90
10046;DHT22;5063;50.878;4.742;2023-07-31T02:01:26;17.30;99.90
10046;DHT22;5063;50.878;4.742;2023-07-31T02:03:52;17.30;99.90
10046;DHT22;5063;50.878;4.742;2023-07-31T02:06:18;17.20;99.90
10046;DHT22;5063;50.878;4.742;2023-07-31T02:08:43;17.20;99.90
10046;DHT22;5063;50.878;4.742;2023-07-31T02:11:09;17.20;99.90
10046;DHT22;5063;50.878;4.742;2023-07-31T02:13:35;17.10;99.90
10046;DHT22;5063;50.878;4.742;2023-07-31T02:16:00;17.10;99.90
10046;DHT22;5063;50.878;4.742;2023-07-31T02:18:26;17.10;99.90
10046;DHT22;5063;50.878;4.742;2023-07-31T02:20:52;17.10;99.90
10046;DHT22;5063;50.878;4.742;2023-07-31T02:23:19;17.10;99.90
10046;DHT22;5063;50.878;4.742;2023-07-31T02:25:45;17.10;99.90
10046;DHT22;5063;50.878;4.742;2023-07-31T02:28:11;17.10;99.90
10046;DHT22;5063;50.878;4.742;2023-07-31T02:30:37;17.10;99.90
10046;DHT22;5063;50.878;4.742;2023-07-31T02:33:04;17.10;99.90
10046;DHT22;5063;50.878;4.742;2023-07-31T02:35:30;17.10;99.90
10046;DHT22;5063;50.878;4.742;2023-07-31T02:37:55;17.10;99.90
10046;DHT22;5063;50.878;4.742;2023-07-31T02:40:21;17.10;99.90
10046;DHT22;5063;50.878;4.742;2023-07-31T02:42:47;17.10;99.90
10046;DHT22;5063;50.878;4.742;2023-07-31T02:45:13;17.10;99.90
10046;DHT22;5063;50.878;4.742;2023-07-31T02:47:38;17.10;99.90
10046;DHT22;5063;50.878;4.742;2023-07-31T02:50:04;17.10;99.90
10046;DHT22;5063;50.878;4.742;2023-07-31T02:52:30;17.10;99.90
10046;DHT22;5063;50.878;4.742;2023-07-31T02:54:57;17.10;99.90
10046;DHT22;5063;50.878;4.742;2023-07-31T02:57:22;17.10;99.90
10046;DHT22;5063;50.878;4.742;2023-07-31T02:59:48;17.10;99.90
10046;DHT22;5063;50.878;4.742;2023-07-31T03:02:14;17.10;99.90
10046;DHT22;5063;50.878;4.742;2023-07-31T03:04:40;17.10;99.90
10046;DHT22;5063;50.878;4.742;2023-07-31T03:07:05;17.10;99.90
10046;DHT22;5063;50.878;4.742;2023-07-31T03:09:31;17.10;99.90
10046;DHT22;5063;50.878;4.742;2023-07-31T03:11:57;17.10;99.90
10046;DHT22;5063;50.878;4.742;2023-07-31T03:14:22;17.20;99.90
10046;DHT22;5063;50.878;4.742;2023-07-31T03:16:49;17.20;99.90
10046;DHT22;5063;50.878;4.742;2023-07-31T03:19:14;17.20;99.90
10046;DHT22;5063;50.878;4.742;2023-07-31T03:21:40;17.20;99.90
10046;DHT22;5063;50.878;4.742;2023-07-31T03:24:06;17.20;99.90
10046;DHT22;5063;50.878;4.742;2023-07-31T03:26:32;17.20;99.90
10046;DHT22;5063;50.878;4.742;2023-07-31T03:28:58;17.20;99.90
10046;DHT22;5063;50.878;4.742;2023-07-31T03:31:23;17.20;99.90
10046;DHT22;5063;50.878;4.742;2023-07-31T03:33:49;17.20;99.90
10046;DHT22;5063;50.878;4.742;2023-07-31T03:36:15;17.20;99.90
10046;DHT22;5063;50.878;4.742;2023-07-31T03:38:40;17.20;99.90
10046;DHT22;5063;50.878;4.742;2023-07-31T03:41:06;17.20;99.90
10046;DHT22;5063;50.878;4.742;2023-07-31T03:43:32;17.20;99.90
10046;DHT22;5063;50.878;4.742;2023-07-31T03:46:01;17.20;99.90
10046;DHT22;5063;50.878;4.742;2023-07-31T03:48:28;17.30;99.90
10046;DHT22;5063;50.878;4.742;2023-07-31T03:50:54;17.30;99.90
10046;DHT22;5063;50.878;4.742;2023-07-31T03:53:20;17.30;99.90
10046;DHT22;5063;50.878;4.742;2023-07-31T03:55:45;17.30;99.90
10046;DHT22;5063;50.878;4.742;2023-07-31T03:58:11;17.20;99.90
10046;DHT22;5063;50.878;4.742;2023-07-31T04:00:37;17.20;99.90
10046;DHT22;5063;50.878;4.742;2023-07-31T04:03:03;17.20;99.90
10046;DHT22;5063;50.878;4.742;2023-07-31T04:05:31;17.20;99.90
10046;DHT22;5063;50.878;4.742;2023-07-31T04:07:57;17.20;99.90
10046;DHT22;5063;50.878;4.742;2023-07-31T04:10:22;17.20;99.90
10046;DHT22;5063;50.878;4.742;2023-07-31T04:12:48;17.20;99.90
10046;DHT22;5063;50.878;4.742;2023-07-31T04:15:14;17.20;99.90
10046;DHT22;5063;50.878;4.742;2023-07-31T04:17:39;17.20;99.90
10046;DHT22;5063;50.878;4.742;2023-07-31T04:20:05;17.10;99.90
10046;DHT22;5063;50.878;4.742;2023-07-31T04:22:31;17.10;99.90
10046;DHT22;5063;50.878;4.742;2023-07-31T04:24:57;17.10;99.90
10046;DHT22;5063;50.878;4.742;2023-07-31T04:27:23;17.00;99.90
10046;DHT22;5063;50.878;4.742;2023-07-31T04:29:48;17.00;99.90
10046;DHT22;5063;50.878;4.742;2023-07-31T04:32:14;17.00;99.90
10046;DHT22;5063;50.878;4.742;2023-07-31T04:34:42;17.00;99.90
10046;DHT22;5063;50.878;4.742;2023-07-31T04:37:08;16.90;99.90
10046;DHT22;5063;50.878;4.742;2023-07-31T04:39:34;16.90;99.90
10046;DHT22;5063;50.878;4.742;2023-07-31T04:41:59;16.90;99.90
10046;DHT22;5063;50.878;4.742;2023-07-31T04:44:25;16.90;99.90
10046;DHT22;5063;50.878;4.742;2023-07-31T04:46:51;16.90;99.90
10046;DHT22;5063;50.878;4.742;2023-07-31T04:49:16;17.00;99.90
10046;DHT22;5063;50.878;4.742;2023-07-31T04:51:42;17.00;99.90
10046;DHT22;5063;50.878;4.742;2023-07-31T04:54:08;17.00;99.90
10046;DHT22;5063;50.878;4.742;2023-07-31T04:56:33;17.00;99.90
10046;DHT22;5063;50.878;4.742;2023-07-31T04:58:59;17.10;99.90
10046;DHT22;5063;50.878;4.742;2023-07-31T05:01:25;17.10;99.90
10046;DHT22;5063;50.878;4.742;2023-07-31T05:03:51;17.10;99.90
10046;DHT22;5063;50.878;4.742;2023-07-31T05:06:16;17.20;99.90
10046;DHT22;5063;50.878;4.742;2023-07-31T05:08:42;17.20;99.90
10046;DHT22;5063;50.878;4.742;2023-07-31T05:11:08;17.10;99.90
10046;DHT22;5063;50.878;4.742;2023-07-31T05:13:34;17.20;99.90
10046;DHT22;5063;50.878;4.742;2023-07-31T05:15:59;17.10;99.90
10046;DHT22;5063;50.878;4.742;2023-07-31T05:18:25;17.20;99.90
10046;DHT22;5063;50.878;4.742;2023-07-31T05:20:51;17.10;99.90
10046;DHT22;5063;50.878;4.742;2023-07-31T05:23:16;17.10;99.90
10046;DHT22;5063;50.878;4.742;2023-07-31T05:25:42;17.10;99.90
10046;DHT22;5063;50.878;4.742;2023-07-31T05:28:08;17.10;99.90
10046;DHT22;5063;50.878;4.742;2023-07-31T05:30:33;17.10;99.90
10046;DHT22;5063;50.878;4.742;2023-07-31T05:32:59;17.10;99.90
10046;DHT22;5063;50.878;4.742;2023-07-31T05:35:25;17.10;99.90
10046;DHT22;5063;50.878;4.742;2023-07-31T05:37:50;17.00;99.90
10046;DHT22;5063;50.878;4.742;2023-07-31T05:40:16;17.00;99.90
10046;DHT22;5063;50.878;4.742;2023-07-31T05:42:42;17.00;99.90
10046;DHT22;5063;50.878;4.742;2023-07-31T05:45:08;17.00;99.90
10046;DHT22;5063;50.878;4.742;2023-07-31T05:47:33;17.00;99.90
10046;DHT22;5063;50.878;4.742;2023-07-31T05:49:59;17.00;99.90
10046;DHT22;5063;50.878;4.742;2023-07-31T05:52:25;16.90;99.90
10046;DHT22;5063;50.878;4.742;2023-07-31T05:54:51;16.90;99.90
10046;DHT22;5063;50.878;4.742;2023-07-31T05:57:17;16.80;99.90
10046;DHT22;5063;50.878;4.742;2023-07-31T05:59:42;16.80;99.90
10046;DHT22;5063;50.878;4.742;2023-07-31T06:02:08;16.80;99.90
10046;DHT22;5063;50.878;4.742;2023-07-31T06:04:34;16.70;99.90
10046;DHT22;5063;50.878;4.742;2023-07-31T06:07:00;16.70;99.90
10046;DHT22;5063;50.878;4.742;2023-07-31T06:09:26;16.70;99.90
10046;DHT22;5063;50.878;4.742;2023-07-31T06:11:51;16.70;99.90
10046;DHT22;5063;50.878;4.742;2023-07-31T06:14:17;16.70;99.90
10046;DHT22;5063;50.878;4.742;2023-07-31T06:16:44;16.70;99.90
10046;DHT22;5063;50.878;4.742;2023-07-31T06:19:10;16.60;99.90
10046;DHT22;5063;50.878;4.742;2023-07-31T06:21:36;16.70;99.90
10046;DHT22;5063;50.878;4.742;2023-07-31T06:24:07;16.70;99.90
10046;DHT22;5063;50.878;4.742;2023-07-31T06:26:33;16.70;99.90
10046;DHT22;5063;50.878;4.742;2023-07-31T06:28:58;16.70;99.90
10046;DHT22;5063;50.878;4.742;2023-07-31T06:31:24;16.70;99.90
10046;DHT22;5063;50.878;4.742;2023-07-31T06:33:51;16.70;99.90
10046;DHT22;5063;50.878;4.742;2023-07-31T06:36:17;16.80;99.90
10046;DHT22;5063;50.878;4.742;2023-07-31T06:38:43;16.90;99.90
10046;DHT22;5063;50.878;4.742;2023-07-31T06:41:09;17.00;99.90
10046;DHT22;5063;50.878;4.742;2023-07-31T06:43:36;17.00;99.90
10046;DHT22;5063;50.878;4.742;2023-07-31T06:46:06;17.10;99.90
10046;DHT22;5063;50.878;4.742;2023-07-31T06:48:35;17.20;99.90
10046;DHT22;5063;50.878;4.742;2023-07-31T06:51:03;17.30;99.90
10046;DHT22;5063;50.878;4.742;2023-07-31T06:53:29;17.30;99.90
10046;DHT22;5063;50.878;4.742;2023-07-31T06:55:55;17.30;99.90
10046;DHT22;5063;50.878;4.742;2023-07-31T06:58:20;17.30;99.90
10046;DHT22;5063;50.878;4.742;2023-07-31T07:00:46;17.30;99.90
10046;DHT22;5063;50.878;4.742;2023-07-31T07:03:12;17.30;99.90
10046;DHT22;5063;50.878;4.742;2023-07-31T07:05:40;17.40;99.90
10046;DHT22;5063;50.878;4.742;2023-07-31T07:08:06;17.50;99.90
10046;DHT22;5063;50.878;4.742;2023-07-31T07:10:31;17.80;99.90
10046;DHT22;5063;50.878;4.742;2023-07-31T07:12:57;17.90;99.90
10046;DHT22;5063;50.878;4.742;2023-07-31T07:15:23;18.00;99.90
10046;DHT22;5063;50.878;4.742;2023-07-31T07:17:48;18.00;99.90
10046;DHT22;5063;50.878;4.742;2023-07-31T07:20:15;18.10;99.90
10046;DHT22;5063;50.878;4.742;2023-07-31T07:22:41;18.10;99.90
10046;DHT22;5063;50.878;4.742;2023-07-31T07:25:08;18.10;99.90
10046;DHT22;5063;50.878;4.742;2023-07-31T07:27:34;18.20;99.90
10046;DHT22;5063;50.878;4.742;2023-07-31T07:30:00;18.20;99.90
10046;DHT22;5063;50.878;4.742;2023-07-31T07:32:26;18.40;99.90
10046;DHT22;5063;50.878;4.742;2023-07-31T07:34:52;18.60;99.90
10046;DHT22;5063;50.878;4.742;2023-07-31T07:37:17;18.70;99.90
10046;DHT22;5063;50.878;4.742;2023-07-31T07:39:43;18.70;99.90
10046;DHT22;5063;50.878;4.742;2023-07-31T07:42:09;18.90;99.90
10046;DHT22;5063;50.878;4.742;2023-07-31T07:44:35;18.90;99.90
10046;DHT22;5063;50.878;4.742;2023-07-31T07:47:01;19.00;99.90
10046;DHT22;5063;50.878;4.742;2023-07-31T07:49:27;18.90;99.90
10046;DHT22;5063;50.878;4.742;2023-07-31T07:51:52;18.80;99.90
10046;DHT22;5063;50.878;4.742;2023-07-31T07:54:18;18.80;99.90
10046;DHT22;5063;50.878;4.742;2023-07-31T07:56:45;18.90;99.90
10046;DHT22;5063;50.878;4.742;2023-07-31T07:59:11;18.70;99.90
10046;DHT22;5063;50.878;4.742;2023-07-31T08:01:37;18.80;99.90
10046;DHT22;5063;50.878;4.742;2023-07-31T08:04:02;18.70;99.90
10046;DHT22;5063;50.878;4.742;2023-07-31T08:06:28;18.70;99.90
10046;DHT22;5063;50.878;4.742;2023-07-31T08:08:55;18.70;99.90
10046;DHT22;5063;50.878;4.742;2023-07-31T08:11:21;18.80;99.90
10046;DHT22;5063;50.878;4.742;2023-07-31T08:13:49;18.90;99.90
10046;DHT22;5063;50.878;4.742;2023-07-31T08:16:14;18.90;99.90
10046;DHT22;5063;50.878;4.742;2023-07-31T08:18:40;18.60;99.90
10046;DHT22;5063;50.878;4.742;2023-07-31T08:21:08;18.50;99.90
10046;DHT22;5063;50.878;4.742;2023-07-31T08:23:34;18.60;99.90
10046;DHT22;5063;50.878;4.742;2023-07-31T08:25:59;18.60;99.90
10046;DHT22;5063;50.878;4.742;2023-07-31T08:28:25;18.70;99.90
10046;DHT22;5063;50.878;4.742;2023-07-31T08:30:51;18.90;99.90
10046;DHT22;5063;50.878;4.742;2023-07-31T08:33:17;19.00;99.90
10046;DHT22;5063;50.878;4.742;2023-07-31T08:35:42;19.00;99.90
10046;DHT22;5063;50.878;4.742;2023-07-31T08:38:08;19.10;99.90
10046;DHT22;5063;50.878;4.742;2023-07-31T08:40:36;19.20;99.90
10046;DHT22;5063;50.878;4.742;2023-07-31T08:43:03;19.30;99.90
10046;DHT22;5063;50.878;4.742;2023-07-31T08:45:30;19.30;99.90
10046;DHT22;5063;50.878;4.742;2023-07-31T08:47:56;19.20;99.90
10046;DHT22;5063;50.878;4.742;2023-07-31T08:50:23;19.30;99.90
10046;DHT22;5063;50.878;4.742;2023-07-31T08:52:50;19.60;99.90
10046;DHT22;5063;50.878;4.742;2023-07-31T08:55:17;19.80;99.90
10046;DHT22;5063;50.878;4.742;2023-07-31T08:57:43;19.90;99.90
10046;DHT22;5063;50.878;4.742;2023-07-31T09:00:10;19.70;99.90
10046;DHT22;5063;50.878;4.742;2023-07-31T09:03:07;19.30;99.90
10046;DHT22;5063;50.878;4.742;2023-07-31T09:05:36;19.30;99.90
10046;DHT22;5063;50.878;4.742;2023-07-31T09:08:02;19.20;99.90
10046;DHT22;5063;50.878;4.742;2023-07-31T09:10:30;19.30;99.90
10046;DHT22;5063;50.878;4.742;2023-07-31T09:12:56;19.20;99.90
10046;DHT22;5063;50.878;4.742;2023-07-31T09:15:23;19.10;99.90
10046;DHT22;5063;50.878;4.742;2023-07-31T09:18:01;19.20;99.90
10046;DHT22;5063;50.878;4.742;2023-07-31T09:20:27;19.30;99.90
10046;DHT22;5063;50.878;4.742;2023-07-31T09:22:55;19.30;99.90
10046;DHT22;5063;50.878;4.742;2023-07-31T09:25:30;19.50;99.90
10046;DHT22;5063;50.878;4.742;2023-07-31T09:27:59;19.50;99.90
10046;DHT22;5063;50.878;4.742;2023-07-31T09:30:25;19.30;99.90
10046;DHT22;5063;50.878;4.742;2023-07-31T09:32:52;19.20;99.90
10046;DHT22;5063;50.878;4.742;2023-07-31T09:35:33;19.20;99.90
10046;DHT22;5063;50.878;4.742;2023-07-31T09:38:00;19.30;99.90
10046;DHT22;5063;50.878;4.742;2023-07-31T09:40:30;19.50;99.90
10046;DHT22;5063;50.878;4.742;2023-07-31T09:42:57;19.80;99.90
10046;DHT22;5063;50.878;4.742;2023-07-31T09:45:24;19.80;99.90
10046;DHT22;5063;50.878;4.742;2023-07-31T09:47:50;19.90;99.90
10046;DHT22;5063;50.878;4.742;2023-07-31T09:50:15;20.10;99.90
10046;DHT22;5063;50.878;4.742;2023-07-31T09:52:41;20.50;99.90
10046;DHT22;5063;50.878;4.742;2023-07-31T09:55:08;21.00;99.90
10046;DHT22;5063;50.878;4.742;2023-07-31T09:57:43;21.10;99.90
10046;DHT22;5063;50.878;4.742;2023-07-31T10:00:10;21.40;99.90
10046;DHT22;5063;50.878;4.742;2023-07-31T10:02:37;21.50;99.90
10046;DHT22;5063;50.878;4.742;2023-07-31T10:05:04;21.20;99.90
10046;DHT22;5063;50.878;4.742;2023-07-31T10:07:31;21.00;99.90
10046;DHT22;5063;50.878;4.742;2023-07-31T10:10:00;20.80;99.90
10046;DHT22;5063;50.878;4.742;2023-07-31T10:12:27;20.90;99.90
10046;DHT22;5063;50.878;4.742;2023-07-31T10:14:56;20.90;99.90
10046;DHT22;5063;50.878;4.742;2023-07-31T10:17:23;21.10;99.90
10046;DHT22;5063;50.878;4.742;2023-07-31T10:19:49;21.40;99.90
10046;DHT22;5063;50.878;4.742;2023-07-31T10:22:16;21.40;99.90
10046;DHT22;5063;50.878;4.742;2023-07-31T10:24:49;21.30;99.90
10046;DHT22;5063;50.878;4.742;2023-07-31T10:27:15;21.40;99.90
10046;DHT22;5063;50.878;4.742;2023-07-31T10:29:43;21.30;99.90
10046;DHT22;5063;50.878;4.742;2023-07-31T10:32:14;21.30;99.90
10046;DHT22;5063;50.878;4.742;2023-07-31T10:34:42;21.30;99.90
10046;DHT22;5063;50.878;4.742;2023-07-31T10:37:30;21.60;99.90
10046;DHT22;5063;50.878;4.742;2023-07-31T10:42:36;22.40;99.90
10046;DHT22;5063;50.878;4.742;2023-07-31T10:45:05;23.00;99.90
10046;DHT22;5063;50.878;4.742;2023-07-31T10:47:36;23.30;99.90
10046;DHT22;5063;50.878;4.742;2023-07-31T10:50:20;23.40;99.90
10046;DHT22;5063;50.878;4.742;2023-07-31T10:52:55;22.80;99.90
10046;DHT22;5063;50.878;4.742;2023-07-31T10:58:07;22.40;99.90
10046;DHT22;5063;50.878;4.742;2023-07-31T11:00:33;22.10;99.90
10046;DHT22;5063;50.878;4.742;2023-07-31T11:03:08;21.60;99.90
10046;DHT22;5063;50.878;4.742;2023-07-31T11:05:50;21.20;99.90
10046;DHT22;5063;50.878;4.742;2023-07-31T11:10:50;20.90;99.90
10046;DHT22;5063;50.878;4.742;2023-07-31T11:13:16;21.10;99.90
10046;DHT22;5063;50.878;4.742;2023-07-31T11:15:42;21.20;99.90
10046;DHT22;5063;50.878;4.742;2023-07-31T11:18:08;21.20;99.90
10046;DHT22;5063;50.878;4.742;2023-07-31T11:20:37;21.30;99.90
10046;DHT22;5063;50.878;4.742;2023-07-31T11:23:06;21.40;99.90
10046;DHT22;5063;50.878;4.742;2023-07-31T11:25:33;21.60;99.90
10046;DHT22;5063;50.878;4.742;2023-07-31T11:28:04;21.80;99.90
10046;DHT22;5063;50.878;4.742;2023-07-31T11:30:30;21.90;99.90
10046;DHT22;5063;50.878;4.742;2023-07-31T11:32:56;21.80;99.90
10046;DHT22;5063;50.878;4.742;2023-07-31T11:35:22;21.50;99.90
10046;DHT22;5063;50.878;4.742;2023-07-31T11:37:47;21.70;99.90
10046;DHT22;5063;50.878;4.742;2023-07-31T11:40:14;22.00;99.90
10046;DHT22;5063;50.878;4.742;2023-07-31T11:42:41;22.40;99.90
10046;DHT22;5063;50.878;4.742;2023-07-31T11:45:09;22.70;99.90
10046;DHT22;5063;50.878;4.742;2023-07-31T11:47:37;22.40;99.90
10046;DHT22;5063;50.878;4.742;2023-07-31T11:50:10;22.20;99.90
10046;DHT22;5063;50.878;4.742;2023-07-31T11:52:41;22.20;99.90
10046;DHT22;5063;50.878;4.742;2023-07-31T11:55:08;22.30;99.90
10046;DHT22;5063;50.878;4.742;2023-07-31T11:57:39;22.40;99.90
10046;DHT22;5063;50.878;4.742;2023-07-31T12:00:07;22.40;99.90
10046;DHT22;5063;50.878;4.742;2023-07-31T12:02:35;22.50;99.90
10046;DHT22;5063;50.878;4.742;2023-07-31T12:05:01;22.30;99.90
10046;DHT22;5063;50.878;4.742;2023-07-31T12:07:27;22.30;99.90
10046;DHT22;5063;50.878;4.742;2023-07-31T12:09:56;22.30;99.90
10046;DHT22;5063;50.878;4.742;2023-07-31T12:12:24;22.60;99.90
10046;DHT22;5063;50.878;4.742;2023-07-31T12:14:50;22.60;99.90
10046;DHT22;5063;50.878;4.742;2023-07-31T12:17:19;22.60;99.90
10046;DHT22;5063;50.878;4.742;2023-07-31T12:19:48;22.50;99.90
10046;DHT22;5063;50.878;4.742;2023-07-31T12:22:14;22.30;99.90
10046;DHT22;5063;50.878;4.742;2023-07-31T12:24:43;22.50;99.90
10046;DHT22;5063;50.878;4.742;2023-07-31T12:27:15;22.80;99.90
10046;DHT22;5063;50.878;4.742;2023-07-31T12:29:44;23.10;99.90
10046;DHT22;5063;50.878;4.742;2023-07-31T12:32:25;23.50;99.90
10046;DHT22;5063;50.878;4.742;2023-07-31T12:34:53;23.20;99.90
10046;DHT22;5063;50.878;4.742;2023-07-31T12:37:20;23.00;99.90
10046;DHT22;5063;50.878;4.742;2023-07-31T12:39:46;22.60;99.90
10046;DHT22;5063;50.878;4.742;2023-07-31T12:42:12;22.50;99.90
10046;DHT22;5063;50.878;4.742;2023-07-31T12:44:37;22.60;99.90
10046;DHT22;5063;50.878;4.742;2023-07-31T12:47:03;22.50;99.90
10046;DHT22;5063;50.878;4.742;2023-07-31T12:49:29;22.20;99.90
10046;DHT22;5063;50.878;4.742;2023-07-31T12:51:55;22.20;99.90
10046;DHT22;5063;50.878;4.742;2023-07-31T12:54:20;22.20;99.90
10046;DHT22;5063;50.878;4.742;2023-07-31T12:56:46;22.40;99.90
10046;DHT22;5063;50.878;4.742;2023-07-31T12:59:12;22.20;99.90
10046;DHT22;5063;50.878;4.742;2023-07-31T13:01:37;22.20;99.90
10046;DHT22;5063;50.878;4.742;2023-07-31T13:04:03;22.00;99.90
10046;DHT22;5063;50.878;4.742;2023-07-31T13:06:29;22.10;99.90
10046;DHT22;5063;50.878;4.742;2023-07-31T13:08:55;22.50;99.90
10046;DHT22;5063;50.878;4.742;2023-07-31T13:11:20;22.40;99.90
10046;DHT22;5063;50.878;4.742;2023-07-31T13:13:46;22.20;99.90
10046;DHT22;5063;50.878;4.742;2023-07-31T13:16:12;22.20;99.90
10046;DHT22;5063;50.878;4.742;2023-07-31T13:18:37;22.10;99.90
10046;DHT22;5063;50.878;4.742;2023-07-31T13:21:03;21.90;99.90
10046;DHT22;5063;50.878;4.742;2023-07-31T13:23:29;21.90;99.90
10046;DHT22;5063;50.878;4.742;2023-07-31T13:25:54;22.00;99.90
10046;DHT22;5063;50.878;4.742;2023-07-31T13:28:20;21.50;99.90
10046;DHT22;5063;50.878;4.742;2023-07-31T13:30:46;21.40;99.90
10046;DHT22;5063;50.878;4.742;2023-07-31T13:33:11;21.30;99.90
10046;DHT22;5063;50.878;4.742;2023-07-31T13:35:37;21.30;99.90
10046;DHT22;5063;50.878;4.742;2023-07-31T13:38:03;21.10;99.90
10046;DHT22;5063;50.878;4.742;2023-07-31T13:40:28;21.00;99.90
10046;DHT22;5063;50.878;4.742;2023-07-31T13:42:54;20.90;99.90
10046;DHT22;5063;50.878;4.742;2023-07-31T13:45:21;20.60;99.90
10046;DHT22;5063;50.878;4.742;2023-07-31T13:47:46;20.30;99.90
10046;DHT22;5063;50.878;4.742;2023-07-31T13:50:12;20.00;99.90
10046;DHT22;5063;50.878;4.742;2023-07-31T13:52:38;19.80;99.90
10046;DHT22;5063;50.878;4.742;2023-07-31T13:55:04;19.70;99.90
10046;DHT22;5063;50.878;4.742;2023-07-31T13:57:29;19.60;99.90
10046;DHT22;5063;50.878;4.742;2023-07-31T13:59:55;19.40;99.90
10046;DHT22;5063;50.878;4.742;2023-07-31T14:02:21;19.30;99.90
10046;DHT22;5063;50.878;4.742;2023-07-31T14:04:46;19.30;99.90
10046;DHT22;5063;50.878;4.742;2023-07-31T14:07:12;19.20;99.90
10046;DHT22;5063;50.878;4.742;2023-07-31T14:09:38;19.20;99.90
10046;DHT22;5063;50.878;4.742;2023-07-31T14:12:04;19.20;99.90
10046;DHT22;5063;50.878;4.742;2023-07-31T14:14:29;19.20;99.90
10046;DHT22;5063;50.878;4.742;2023-07-31T14:16:55;19.20;99.90
10046;DHT22;5063;50.878;4.742;2023-07-31T14:19:21;19.20;99.90
10046;DHT22;5063;50.878;4.742;2023-07-31T14:21:46;19.20;99.90
10046;DHT22;5063;50.878;4.742;2023-07-31T14:24:12;19.20;99.90
10046;DHT22;5063;50.878;4.742;2023-07-31T14:26:38;19.30;99.90
10046;DHT22;5063;50.878;4.742;2023-07-31T14:29:03;19.20;99.90
10046;DHT22;5063;50.878;4.742;2023-07-31T14:31:29;19.20;99.90
10046;DHT22;5063;50.878;4.742;2023-07-31T14:33:55;19.10;99.90
10046;DHT22;5063;50.878;4.742;2023-07-31T14:36:21;19.20;99.90
10046;DHT22;5063;50.878;4.742;2023-07-31T14:38:46;19.10;99.90
10046;DHT22;5063;50.878;4.742;2023-07-31T14:41:12;19.10;99.90
10046;DHT22;5063;50.878;4.742;2023-07-31T14:43:38;19.30;99.90
10046;DHT22;5063;50.878;4.742;2023-07-31T14:46:04;19.30;99.90
10046;DHT22;5063;50.878;4.742;2023-07-31T14:48:30;19.30;99.90
10046;DHT22;5063;50.878;4.742;2023-07-31T14:50:56;19.30;99.90
10046;DHT22;5063;50.878;4.742;2023-07-31T14:53:21;19.30;99.90
10046;DHT22;5063;50.878;4.742;2023-07-31T14:55:47;19.40;99.90
10046;DHT22;5063;50.878;4.742;2023-07-31T14:58:13;19.30;99.90
10046;DHT22;5063;50.878;4.742;2023-07-31T15:00:40;19.30;99.90
10046;DHT22;5063;50.878;4.742;2023-07-31T15:03:05;19.30;99.90
10046;DHT22;5063;50.878;4.742;2023-07-31T15:05:31;19.40;99.90
10046;DHT22;5063;50.878;4.742;2023-07-31T15:07:57;19.30;99.90
10046;DHT22;5063;50.878;4.742;2023-07-31T15:10:22;19.30;99.90
10046;DHT22;5063;50.878;4.742;2023-07-31T15:12:48;19.30;99.90
10046;DHT22;5063;50.878;4.742;2023-07-31T15:15:15;19.40;99.90
10046;DHT22;5063;50.878;4.742;2023-07-31T15:17:41;19.30;99.90
10046;DHT22;5063;50.878;4.742;2023-07-31T15:20:07;19.30;99.90
10046;DHT22;5063;50.878;4.742;2023-07-31T15:22:33;19.30;99.90
10046;DHT22;5063;50.878;4.742;2023-07-31T15:24:58;19.20;99.90
10046;DHT22;5063;50.878;4.742;2023-07-31T15:27:24;19.20;99.90
10046;DHT22;5063;50.878;4.742;2023-07-31T15:29:50;19.20;99.90
10046;DHT22;5063;50.878;4.742;2023-07-31T15:32:19;19.20;99.90
10046;DHT22;5063;50.878;4.742;2023-07-31T15:34:44;19.20;99.90
10046;DHT22;5063;50.878;4.742;2023-07-31T15:37:10;19.20;99.90
10046;DHT22;5063;50.878;4.742;2023-07-31T15:39:36;19.10;99.90
10046;DHT22;5063;50.878;4.742;2023-07-31T15:42:02;19.10;99.90
10046;DHT22;5063;50.878;4.742;2023-07-31T15:44:27;19.10;99.90
10046;DHT22;5063;50.878;4.742;2023-07-31T15:46:53;19.00;99.90
10046;DHT22;5063;50.878;4.742;2023-07-31T15:49:19;19.10;99.90
10046;DHT22;5063;50.878;4.742;2023-07-31T15:51:44;19.10;99.90
10046;DHT22;5063;50.878;4.742;2023-07-31T15:54:10;19.10;99.90
10046;DHT22;5063;50.878;4.742;2023-07-31T15:56:36;19.10;99.90
10046;DHT22;5063;50.878;4.742;2023-07-31T15:59:02;18.90;99.90